Time;durP1;ratioP1;P1;durP2;ratioP2;P2;SDS_P1;SDS_P2;PMS_P1;PMS_P2;Temp;Humidity;BMP_temperature;BMP_pressure;BME280_temperature;BME280_humidity;BME280_pressure;Samples;Min_cycle;Max_cycle;Signal;HPM_P1;HPM_P2
2022/12/23 00:01:04;;;;;;;3.15;1.45;;;;;;;;;;4980876;28;20491;-66
2022/12/23 00:03:30;;;;;;;6.65;1.58;;;;;;;;;;4981003;28;20054;-67
2022/12/23 00:05:57;;;;;;;5.03;1.95;;;;;;;;;;4979404;28;20050;-67
2022/12/23 00:08:23;;;;;;;9.95;2.08;;;;;;;;;;4981284;28;20462;-68
2022/12/23 00:10:49;;;;;;;5.88;2.13;;;;;;;;;;4979119;28;20514;-67
2022/12/23 00:16:09;;;;;;;5.47;1.90;;;;;;;;;;4978790;28;20054;-67
2022/12/23 00:18:35;;;;;;;4.30;2.25;;;;;;;;;;4980904;28;20112;-66
2022/12/23 00:21:06;;;;;;;6.28;2.35;;;;;;;;;;4980552;28;20471;-68
2022/12/23 00:23:32;;;;;;;5.05;2.28;;;;;;;;;;4980910;28;20100;-67
2022/12/23 00:25:58;;;;;;;2.13;1.35;;;;;;;;;;4980214;28;20064;-67
2022/12/23 00:28:25;;;;;;;3.85;1.50;;;;;;;;;;4979984;28;20050;-66
2022/12/23 00:31:02;;;;;;;8.73;2.35;;;;;;;;;;4980297;28;20053;-67
2022/12/23 00:33:31;;;;;;;8.70;2.47;;;;;;;;;;4980087;28;20054;-66
2022/12/23 00:35:56;;;;;;;8.32;3.25;;;;;;;;;;4979539;28;20097;-66
2022/12/23 00:44:08;;;;;;;3.95;2.60;;;;;;;;;;4972839;28;20078;-67
2022/12/23 00:46:34;;;;;;;8.73;3.30;;;;;;;;;;4980019;28;20077;-66
2022/12/23 00:51:43;;;;;;;4.10;2.17;;;;;;;;;;4981131;28;20053;-65
2022/12/23 00:54:09;;;;;;;10.23;2.60;;;;;;;;;;4995436;28;20402;-66
2022/12/23 00:56:34;;;;;;;9.00;3.17;;;;;;;;;;4980644;28;20404;-65
2022/12/23 00:59:00;;;;;;;5.65;2.35;;;;;;;;;;4979464;28;20050;-67
2022/12/23 01:06:58;;;;;;;5.40;2.78;;;;;;;;;;4983334;28;20046;-66
2022/12/23 01:09:24;;;;;;;7.47;2.70;;;;;;;;;;4982072;28;20054;-66
2022/12/23 01:11:50;;;;;;;5.38;2.60;;;;;;;;;;4983444;28;20364;-67
2022/12/23 01:14:16;;;;;;;4.45;2.40;;;;;;;;;;4984037;28;20388;-65
2022/12/23 01:16:42;;;;;;;3.95;2.90;;;;;;;;;;4982933;28;20140;-65
2022/12/23 01:19:08;;;;;;;6.55;2.85;;;;;;;;;;4983871;28;20515;-65
2022/12/23 01:21:33;;;;;;;6.80;2.92;;;;;;;;;;4982196;28;20078;-65
2022/12/23 01:23:59;;;;;;;6.80;3.47;;;;;;;;;;4980753;28;20076;-65
2022/12/23 01:26:25;;;;;;;9.25;3.47;;;;;;;;;;4979276;28;20058;-65
2022/12/23 01:28:57;;;;;;;5.03;3.45;;;;;;;;;;4980251;28;20145;-65
2022/12/23 01:31:26;;;;;;;4.43;2.90;;;;;;;;;;4979750;28;20050;-65
2022/12/23 01:33:52;;;;;;;2.83;2.28;;;;;;;;;;4982837;28;20046;-65
2022/12/23 01:36:18;;;;;;;3.55;2.60;;;;;;;;;;4983075;28;20175;-65
2022/12/23 01:38:44;;;;;;;7.63;4.47;;;;;;;;;;4980188;28;20081;-65
2022/12/23 01:44:43;;;;;;;7.28;5.10;;;;;;;;;;4996575;28;20056;-65
2022/12/23 01:47:32;;;;;;;9.00;5.20;;;;;;;;;;4982086;28;20085;-65
2022/12/23 01:50:23;;;;;;;9.45;4.82;;;;;;;;;;4982058;28;20046;-66
2022/12/23 01:53:10;;;;;;;6.72;4.70;;;;;;;;;;4983554;28;20050;-66
2022/12/23 01:55:42;;;;;;;9.68;5.78;;;;;;;;;;4981216;28;21206;-64
2022/12/23 01:58:15;;;;;;;9.35;4.60;;;;;;;;;;4983517;28;20048;-66
2022/12/23 02:03:41;;;;;;;11.18;4.90;;;;;;;;;;4998238;28;20059;-66
2022/12/23 02:11:37;;;;;;;6.38;4.50;;;;;;;;;;4983361;28;20042;-66
2022/12/23 02:17:23;;;;;;;8.88;4.57;;;;;;;;;;4979862;28;20141;-65
2022/12/23 02:20:20;;;;;;;5.65;4.32;;;;;;;;;;4983237;28;20737;-65
2022/12/23 02:23:13;;;;;;;6.22;4.03;;;;;;;;;;4983176;28;20046;-66
2022/12/23 02:25:51;;;;;;;5.72;3.72;;;;;;;;;;4981791;28;20046;-66
2022/12/23 02:28:42;;;;;;;4.00;2.33;;;;;;;;;;4981888;28;20070;-65
2022/12/23 02:31:22;;;;;;;7.10;3.60;;;;;;;;;;4975133;28;20061;-66
2022/12/23 02:34:19;;;;;;;5.72;3.15;;;;;;;;;;4983148;28;20046;-66
2022/12/23 02:37:11;;;;;;;4.95;3.00;;;;;;;;;;4982111;28;20065;-65
2022/12/23 02:39:54;;;;;;;3.83;2.67;;;;;;;;;;4977529;28;20141;-66
2022/12/23 02:42:24;;;;;;;5.97;3.10;;;;;;;;;;4982619;28;20129;-64
2022/12/23 02:45:22;;;;;;;7.35;4.55;;;;;;;;;;4982047;28;20113;-64
2022/12/23 02:47:55;;;;;;;3.58;2.50;;;;;;;;;;4981558;28;20200;-64
2022/12/23 02:50:29;;;;;;;3.63;3.10;;;;;;;;;;4980857;28;20046;-65
2022/12/23 02:52:59;;;;;;;6.35;4.03;;;;;;;;;;4981595;28;20664;-65
2022/12/23 02:55:30;;;;;;;4.95;3.55;;;;;;;;;;4982307;28;20049;-65
2022/12/23 02:57:59;;;;;;;8.52;4.40;;;;;;;;;;4981701;28;20054;-65
2022/12/23 03:00:25;;;;;;;7.22;4.30;;;;;;;;;;4980678;28;20831;-65
2022/12/23 03:02:50;;;;;;;8.23;4.82;;;;;;;;;;4982144;28;20052;-65
2022/12/23 03:05:40;;;;;;;5.47;4.50;;;;;;;;;;4981771;28;20066;-65
2022/12/23 03:08:12;;;;;;;9.88;4.65;;;;;;;;;;4981782;28;20590;-65
2022/12/23 03:10:52;;;;;;;;;;;;;;;;;;4983049;28;20113;-65
2022/12/23 03:13:43;;;;;;;7.35;4.00;;;;;;;;;;4978504;28;19968;-64
2022/12/23 03:16:33;;;;;;;10.27;4.68;;;;;;;;;;4980659;28;20050;-65
2022/12/23 03:19:27;;;;;;;6.40;4.40;;;;;;;;;;4980952;28;20196;-64
2022/12/23 03:22:18;;;;;;;7.38;3.90;;;;;;;;;;4982050;28;20050;-65
2022/12/23 03:24:53;;;;;;;5.43;4.00;;;;;;;;;;4980906;28;20500;-65
2022/12/23 03:27:36;;;;;;;3.40;2.35;;;;;;;;;;4980465;28;20046;-65
2022/12/23 03:30:06;;;;;;;2.33;1.52;;;;;;;;;;4981737;28;20086;-64
2022/12/23 03:32:42;;;;;;;2.72;1.15;;;;;;;;;;4981629;28;20423;-65
2022/12/23 03:35:09;;;;;;;2.40;0.80;;;;;;;;;;4979487;28;20058;-65
2022/12/23 03:37:38;;;;;;;0.55;0.50;;;;;;;;;;4981118;28;20054;-65
2022/12/23 03:40:08;;;;;;;0.68;0.60;;;;;;;;;;4977601;28;20629;-65
2022/12/23 03:42:37;;;;;;;0.40;0.40;;;;;;;;;;4981778;28;20173;-65
2022/12/23 03:45:09;;;;;;;0.50;0.40;;;;;;;;;;4978975;28;20046;-66
2022/12/23 03:47:43;;;;;;;;;;;;;;;;;;4981545;28;20809;-65
2022/12/23 03:50:11;;;;;;;0.22;0.22;;;;;;;;;;4981211;28;19922;-66
2022/12/23 03:53:00;;;;;;;0.73;0.40;;;;;;;;;;4981887;28;20064;-66
2022/12/23 03:55:33;;;;;;;1.85;0.57;;;;;;;;;;4991416;28;20057;-64
2022/12/23 03:58:05;;;;;;;0.38;0.38;;;;;;;;;;4980391;28;20046;-66
2022/12/23 04:00:37;;;;;;;3.30;0.40;;;;;;;;;;4981229;28;20053;-66
2022/12/23 04:03:02;;;;;;;0.28;0.28;;;;;;;;;;4980315;28;20068;-66
2022/12/23 04:05:37;;;;;;;0.20;0.20;;;;;;;;;;4977757;28;20140;-66
2022/12/23 04:08:16;;;;;;;0.38;0.38;;;;;;;;;;4977882;28;20050;-66
2022/12/23 04:10:41;;;;;;;1.38;0.38;;;;;;;;;;4980260;28;20077;-66
2022/12/23 04:13:07;;;;;;;0.20;0.20;;;;;;;;;;4981248;28;20419;-66
2022/12/23 04:15:33;;;;;;;0.30;0.30;;;;;;;;;;4977196;28;20054;-66
2022/12/23 04:17:59;;;;;;;0.43;0.30;;;;;;;;;;4977617;28;20050;-66
2022/12/23 04:20:24;;;;;;;0.30;0.20;;;;;;;;;;4980572;28;20057;-67
2022/12/23 04:22:50;;;;;;;0.40;0.40;;;;;;;;;;4995826;28;20138;-66
2022/12/23 04:25:16;;;;;;;1.40;0.30;;;;;;;;;;4980472;28;20112;-66
2022/12/23 04:27:42;;;;;;;0.20;0.20;;;;;;;;;;4980678;28;20057;-66
2022/12/23 04:30:09;;;;;;;0.22;0.20;;;;;;;;;;4978111;28;20054;-66
2022/12/23 04:32:35;;;;;;;0.15;0.15;;;;;;;;;;4980994;28;20050;-66
2022/12/23 04:35:01;;;;;;;0.17;0.17;;;;;;;;;;4979814;28;20054;-66
2022/12/23 04:37:27;;;;;;;0.40;0.40;;;;;;;;;;4980244;28;20065;-66
2022/12/23 04:39:52;;;;;;;0.20;0.20;;;;;;;;;;4978858;28;20050;-66
2022/12/23 04:42:17;;;;;;;1.10;0.20;;;;;;;;;;4980803;28;20443;-66
2022/12/23 04:44:43;;;;;;;0.28;0.10;;;;;;;;;;4976551;28;20050;-65
2022/12/23 04:47:08;;;;;;;0.28;0.25;;;;;;;;;;4979477;28;20054;-67
2022/12/23 04:49:34;;;;;;;0.45;0.22;;;;;;;;;;4980463;28;20053;-67
2022/12/23 04:51:59;;;;;;;0.20;0.20;;;;;;;;;;4979505;28;20046;-66
2022/12/23 04:54:25;;;;;;;0.85;0.47;;;;;;;;;;4980237;28;20063;-67
2022/12/23 04:56:50;;;;;;;0.22;0.22;;;;;;;;;;4979819;28;20061;-66
2022/12/23 04:59:15;;;;;;;0.28;0.28;;;;;;;;;;4980209;28;20516;-68
2022/12/23 05:01:41;;;;;;;0.20;0.10;;;;;;;;;;4979278;28;20164;-67
2022/12/23 05:04:08;;;;;;;0.10;0.10;;;;;;;;;;4980291;28;20051;-68
2022/12/23 05:06:33;;;;;;;0.15;0.15;;;;;;;;;;4978612;28;20113;-67
2022/12/23 05:08:59;;;;;;;0.90;0.20;;;;;;;;;;4978689;28;21083;-67
2022/12/23 05:11:24;;;;;;;0.10;0.10;;;;;;;;;;4979599;28;20077;-66
2022/12/23 05:13:50;;;;;;;0.20;0.20;;;;;;;;;;4978303;28;20050;-67
2022/12/23 05:16:15;;;;;;;0.45;0.30;;;;;;;;;;4978041;28;20085;-68
2022/12/23 05:18:40;;;;;;;0.13;0.10;;;;;;;;;;4979672;28;20133;-68
2022/12/23 05:21:06;;;;;;;0.75;0.30;;;;;;;;;;4993148;28;20431;-67
2022/12/23 05:23:31;;;;;;;0.10;0.10;;;;;;;;;;4977854;28;20140;-67
2022/12/23 05:25:57;;;;;;;0.15;0.15;;;;;;;;;;4978137;28;20081;-67
2022/12/23 05:28:22;;;;;;;0.50;0.30;;;;;;;;;;4994940;28;20078;-66
2022/12/23 05:30:48;;;;;;;0.30;0.30;;;;;;;;;;4978950;28;20082;-69
2022/12/23 05:33:14;;;;;;;0.10;0.10;;;;;;;;;;4974011;28;20059;-68
2022/12/23 05:35:39;;;;;;;0.10;0.10;;;;;;;;;;4976943;28;20104;-69
2022/12/23 05:38:05;;;;;;;0.30;0.30;;;;;;;;;;4978894;28;20050;-69
2022/12/23 05:40:30;;;;;;;0.22;0.22;;;;;;;;;;4980148;28;20046;-69
2022/12/23 05:42:56;;;;;;;0.30;0.30;;;;;;;;;;4978623;28;20148;-69
2022/12/23 05:45:21;;;;;;;0.43;0.22;;;;;;;;;;4978829;28;20125;-68
2022/12/23 05:47:47;;;;;;;1.33;0.60;;;;;;;;;;4978104;28;20132;-66
2022/12/23 05:50:12;;;;;;;0.35;0.35;;;;;;;;;;4978237;28;20084;-66
2022/12/23 05:52:38;;;;;;;0.35;0.30;;;;;;;;;;4982825;28;20046;-69
2022/12/23 05:55:04;;;;;;;1.45;0.32;;;;;;;;;;4980898;28;20086;-68
2022/12/23 05:57:31;;;;;;;0.30;0.30;;;;;;;;;;4980617;28;20603;-68
2022/12/23 05:59:57;;;;;;;0.30;0.30;;;;;;;;;;4983310;28;20487;-67
2022/12/23 06:02:23;;;;;;;0.20;0.20;;;;;;;;;;4983618;28;20137;-68
2022/12/23 06:04:48;;;;;;;0.20;0.20;;;;;;;;;;4982717;28;20050;-68
2022/12/23 06:07:14;;;;;;;0.30;0.30;;;;;;;;;;4980029;28;20419;-69
2022/12/23 06:09:39;;;;;;;3.50;0.30;;;;;;;;;;4981152;28;20141;-69
2022/12/23 06:12:05;;;;;;;0.30;0.30;;;;;;;;;;4980635;28;20043;-69
2022/12/23 06:14:31;;;;;;;0.43;0.30;;;;;;;;;;4992983;28;20047;-68
2022/12/23 06:16:56;;;;;;;0.25;0.20;;;;;;;;;;4994916;28;20971;-69
2022/12/23 06:19:22;;;;;;;3.83;0.45;;;;;;;;;;4978709;28;20419;-67
2022/12/23 06:21:47;;;;;;;0.30;0.20;;;;;;;;;;4981268;28;20452;-67
2022/12/23 06:24:13;;;;;;;0.32;0.20;;;;;;;;;;4980300;28;20050;-68
2022/12/23 06:26:38;;;;;;;0.40;0.22;;;;;;;;;;4980611;28;20050;-68
2022/12/23 06:29:03;;;;;;;0.55;0.40;;;;;;;;;;4981657;28;20089;-68
2022/12/23 06:31:29;;;;;;;0.52;0.30;;;;;;;;;;4981344;28;20093;-69
2022/12/23 06:33:54;;;;;;;0.35;0.30;;;;;;;;;;4982818;28;20184;-68
2022/12/23 06:36:20;;;;;;;0.75;0.40;;;;;;;;;;4982249;28;20137;-68
2022/12/23 06:38:45;;;;;;;0.40;0.40;;;;;;;;;;4981354;28;20054;-68
2022/12/23 06:41:11;;;;;;;0.60;0.40;;;;;;;;;;4981079;28;20158;-68
2022/12/23 06:43:36;;;;;;;0.43;0.43;;;;;;;;;;4982965;28;20419;-68
2022/12/23 06:46:02;;;;;;;0.40;0.40;;;;;;;;;;4982087;28;20537;-68
2022/12/23 06:48:27;;;;;;;0.20;0.20;;;;;;;;;;4982319;28;20058;-67
2022/12/23 06:50:53;;;;;;;0.25;0.25;;;;;;;;;;4980039;28;20062;-69
2022/12/23 06:53:18;;;;;;;0.55;0.40;;;;;;;;;;4968218;28;20093;-67
2022/12/23 06:55:43;;;;;;;0.47;0.40;;;;;;;;;;4978336;28;20046;-69
2022/12/23 06:58:09;;;;;;;1.38;0.30;;;;;;;;;;4981203;28;20057;-68
2022/12/23 07:00:34;;;;;;;0.30;0.30;;;;;;;;;;4980475;28;20042;-68
2022/12/23 07:03:00;;;;;;;0.47;0.47;;;;;;;;;;4979901;28;20054;-68
2022/12/23 07:05:25;;;;;;;0.30;0.30;;;;;;;;;;4981443;28;20772;-69
2022/12/23 07:07:51;;;;;;;1.52;0.55;;;;;;;;;;4981750;28;20641;-68
2022/12/23 07:10:16;;;;;;;0.50;0.50;;;;;;;;;;4981316;28;20042;-68
2022/12/23 07:12:42;;;;;;;0.50;0.50;;;;;;;;;;4982389;28;20058;-68
2022/12/23 07:15:08;;;;;;;0.50;0.50;;;;;;;;;;4978986;28;20153;-69
2022/12/23 07:17:34;;;;;;;0.30;0.30;;;;;;;;;;4980619;28;20076;-68
2022/12/23 07:19:59;;;;;;;0.20;0.20;;;;;;;;;;4980959;28;20898;-69
2022/12/23 07:22:25;;;;;;;1.25;0.70;;;;;;;;;;4981541;28;20046;-68
2022/12/23 07:24:50;;;;;;;0.55;0.40;;;;;;;;;;4995074;28;20136;-68
2022/12/23 07:27:16;;;;;;;0.50;0.50;;;;;;;;;;4979752;28;20038;-68
2022/12/23 07:29:41;;;;;;;0.40;0.40;;;;;;;;;;4981720;28;20054;-68
2022/12/23 07:32:07;;;;;;;0.38;0.38;;;;;;;;;;4979436;28;20526;-68
2022/12/23 07:34:33;;;;;;;0.50;0.50;;;;;;;;;;4981805;28;20042;-68
2022/12/23 07:36:58;;;;;;;0.20;0.20;;;;;;;;;;4977907;28;20466;-68
2022/12/23 07:39:23;;;;;;;1.00;0.40;;;;;;;;;;4981673;28;20129;-68
2022/12/23 07:41:49;;;;;;;0.77;0.52;;;;;;;;;;4980656;28;20538;-68
2022/12/23 07:44:15;;;;;;;1.02;0.50;;;;;;;;;;4981539;28;20046;-68
2022/12/23 07:46:40;;;;;;;0.90;0.50;;;;;;;;;;4978240;28;20074;-68
2022/12/23 07:49:05;;;;;;;1.00;0.60;;;;;;;;;;4995613;28;20046;-68
2022/12/23 07:51:31;;;;;;;1.17;0.70;;;;;;;;;;4980480;28;20101;-69
2022/12/23 07:53:57;;;;;;;1.40;0.75;;;;;;;;;;4995970;28;20474;-68
2022/12/23 07:56:23;;;;;;;2.50;0.80;;;;;;;;;;4979720;28;20122;-69
2022/12/23 07:58:50;;;;;;;1.05;0.50;;;;;;;;;;4979509;28;20052;-70
2022/12/23 08:01:16;;;;;;;0.47;0.47;;;;;;;;;;4979560;28;20046;-69
2022/12/23 08:03:42;;;;;;;0.80;0.57;;;;;;;;;;4980627;28;20864;-68
2022/12/23 08:06:11;;;;;;;1.95;0.55;;;;;;;;;;4979744;28;20495;-68
2022/12/23 08:08:37;;;;;;;0.35;0.35;;;;;;;;;;4994667;28;20570;-68
2022/12/23 08:11:05;;;;;;;0.30;0.30;;;;;;;;;;4979834;28;20050;-69
2022/12/23 08:13:32;;;;;;;0.30;0.30;;;;;;;;;;4979927;28;20042;-68
2022/12/23 08:16:00;;;;;;;0.75;0.60;;;;;;;;;;4979734;28;20161;-68
2022/12/23 08:18:27;;;;;;;0.50;0.50;;;;;;;;;;4980440;28;20628;-68
2022/12/23 08:20:58;;;;;;;0.68;0.28;;;;;;;;;;4978582;28;20053;-68
2022/12/23 08:23:25;;;;;;;0.32;0.32;;;;;;;;;;4980362;28;20057;-68
2022/12/23 08:25:59;;;;;;;1.23;0.60;;;;;;;;;;4979994;28;20058;-69
2022/12/23 08:28:25;;;;;;;1.15;0.60;;;;;;;;;;4995487;28;20039;-70
2022/12/23 08:30:50;;;;;;;1.60;0.60;;;;;;;;;;4978882;28;20050;-68
2022/12/23 08:33:15;;;;;;;1.77;0.50;;;;;;;;;;4980283;28;20050;-69
2022/12/23 08:35:41;;;;;;;0.95;0.25;;;;;;;;;;4994852;28;20054;-69
2022/12/23 08:38:06;;;;;;;0.30;0.30;;;;;;;;;;4979553;28;20085;-69
2022/12/23 08:40:31;;;;;;;0.32;0.32;;;;;;;;;;4980697;28;20050;-69
2022/12/23 08:42:57;;;;;;;0.25;0.20;;;;;;;;;;4978743;28;20061;-70
2022/12/23 08:45:23;;;;;;;0.20;0.20;;;;;;;;;;4979208;28;20403;-69
2022/12/23 08:47:48;;;;;;;1.85;0.20;;;;;;;;;;4980154;28;20052;-69
2022/12/23 08:50:13;;;;;;;0.80;0.25;;;;;;;;;;4979917;28;20422;-69
2022/12/23 08:52:39;;;;;;;0.20;0.20;;;;;;;;;;4979441;28;20046;-69
2022/12/23 08:55:04;;;;;;;0.73;0.30;;;;;;;;;;4978967;28;20049;-70
2022/12/23 08:57:30;;;;;;;0.17;0.17;;;;;;;;;;4979291;28;20384;-69
2022/12/23 08:59:55;;;;;;;0.40;0.40;;;;;;;;;;4980286;28;20049;-69
2022/12/23 09:02:20;;;;;;;0.20;0.20;;;;;;;;;;4979836;28;20050;-69
2022/12/23 09:04:46;;;;;;;0.30;0.30;;;;;;;;;;4977340;28;20073;-70
2022/12/23 09:07:11;;;;;;;0.80;0.38;;;;;;;;;;4977877;28;20049;-68
2022/12/23 09:09:37;;;;;;;0.28;0.28;;;;;;;;;;4980390;28;20078;-70
2022/12/23 09:12:03;;;;;;;0.40;0.40;;;;;;;;;;4980121;28;20046;-70
2022/12/23 09:14:28;;;;;;;0.30;0.20;;;;;;;;;;4993991;28;20058;-70
2022/12/23 09:16:54;;;;;;;0.75;0.30;;;;;;;;;;4977174;28;20570;-70
2022/12/23 09:19:19;;;;;;;4.18;0.30;;;;;;;;;;4980734;28;20192;-70
2022/12/23 09:21:45;;;;;;;0.20;0.20;;;;;;;;;;4995324;28;20065;-70
2022/12/23 09:24:10;;;;;;;0.85;0.40;;;;;;;;;;4980807;28;20046;-70
2022/12/23 09:26:36;;;;;;;0.43;0.22;;;;;;;;;;4979709;28;20132;-70
2022/12/23 09:29:01;;;;;;;0.50;0.20;;;;;;;;;;4983818;28;20085;-69
2022/12/23 09:31:27;;;;;;;2.05;0.30;;;;;;;;;;4983588;28;20120;-70
2022/12/23 09:33:52;;;;;;;0.17;0.10;;;;;;;;;;4984120;28;20047;-70
2022/12/23 09:36:19;;;;;;;0.35;0.30;;;;;;;;;;4980880;28;20046;-71
2022/12/23 09:38:44;;;;;;;0.73;0.10;;;;;;;;;;4982654;28;20136;-70
2022/12/23 09:41:47;;;;;;;0.22;0.22;;;;;;;;;;4983215;28;20058;-68
2022/12/23 09:44:24;;;;;;;0.20;0.20;;;;;;;;;;4983810;28;20332;-68
2022/12/23 09:46:55;;;;;;;0.88;0.20;;;;;;;;;;4981024;28;20054;-68
2022/12/23 09:49:22;;;;;;;0.55;0.22;;;;;;;;;;4982063;28;20407;-69
2022/12/23 09:51:49;;;;;;;2.25;0.30;;;;;;;;;;4982493;28;20042;-68
2022/12/23 09:54:19;;;;;;;0.70;0.30;;;;;;;;;;4983888;28;20060;-67
2022/12/23 09:56:56;;;;;;;1.27;0.30;;;;;;;;;;4981527;28;20050;-68
2022/12/23 09:59:46;;;;;;;0.20;0.20;;;;;;;;;;4981925;28;20049;-68
2022/12/23 10:02:29;;;;;;;0.30;0.30;;;;;;;;;;4982638;28;20085;-67
2022/12/23 10:05:39;;;;;;;0.77;0.30;;;;;;;;;;4983411;28;20065;-68
2022/12/23 10:08:20;;;;;;;0.70;0.30;;;;;;;;;;4968595;28;20149;-68
2022/12/23 10:10:49;;;;;;;0.30;0.30;;;;;;;;;;4981088;28;20130;-70
2022/12/23 10:13:28;;;;;;;0.43;0.30;;;;;;;;;;4982994;28;20161;-68
2022/12/23 10:15:57;;;;;;;0.20;0.20;;;;;;;;;;4983171;28;20078;-68
2022/12/23 10:18:44;;;;;;;1.00;0.40;;;;;;;;;;4982096;28;20042;-67
2022/12/23 10:21:25;;;;;;;0.43;0.25;;;;;;;;;;4980739;28;20050;-71
2022/12/23 10:23:53;;;;;;;0.20;0.20;;;;;;;;;;4983051;28;20077;-70
2022/12/23 10:26:23;;;;;;;0.85;0.40;;;;;;;;;;4983187;28;20112;-71
2022/12/23 10:28:59;;;;;;;0.68;0.22;;;;;;;;;;4975015;28;20109;-71
2022/12/23 10:31:43;;;;;;;0.60;0.55;;;;;;;;;;4971755;28;20499;-67
2022/12/23 10:34:21;;;;;;;0.40;0.30;;;;;;;;;;4972443;28;20098;-68
2022/12/23 10:36:55;;;;;;;3.13;0.30;;;;;;;;;;4970466;28;20109;-68
2022/12/23 10:39:31;;;;;;;0.20;0.20;;;;;;;;;;4972130;28;20062;-68
2022/12/23 10:42:38;;;;;;;0.30;0.30;;;;;;;;;;4987834;28;20051;-69
2022/12/23 10:45:18;;;;;;;0.43;0.20;;;;;;;;;;4969576;28;20085;-67
2022/12/23 10:47:52;;;;;;;0.35;0.20;;;;;;;;;;4972437;28;20125;-67
2022/12/23 10:50:45;;;;;;;0.73;0.35;;;;;;;;;;4972571;28;20059;-67
2022/12/23 10:53:21;;;;;;;2.10;0.35;;;;;;;;;;4971952;28;20057;-65
2022/12/23 10:55:48;;;;;;;0.52;0.30;;;;;;;;;;4972229;28;20092;-67
2022/12/23 10:58:17;;;;;;;1.75;0.20;;;;;;;;;;4970554;28;20129;-67
2022/12/23 11:00:47;;;;;;;0.15;0.10;;;;;;;;;;4971993;28;20047;-67
2022/12/23 11:03:25;;;;;;;0.30;0.30;;;;;;;;;;4971971;28;20192;-67
2022/12/23 11:05:52;;;;;;;0.45;0.30;;;;;;;;;;4971329;28;20047;-67
2022/12/23 11:08:20;;;;;;;0.20;0.20;;;;;;;;;;4969468;28;20066;-65
2022/12/23 11:10:47;;;;;;;0.22;0.20;;;;;;;;;;4967033;28;20043;-67
2022/12/23 11:13:36;;;;;;;0.20;0.20;;;;;;;;;;4971223;28;20403;-66
2022/12/23 11:16:23;;;;;;;1.15;0.30;;;;;;;;;;4970304;28;20046;-66
2022/12/23 11:18:58;;;;;;;0.68;0.30;;;;;;;;;;4969242;28;20043;-66
2022/12/23 11:21:25;;;;;;;0.52;0.30;;;;;;;;;;4971715;28;20070;-66
2022/12/23 11:24:09;;;;;;;0.77;0.40;;;;;;;;;;4972198;28;20054;-66
2022/12/23 11:26:35;;;;;;;0.57;0.40;;;;;;;;;;4979733;28;20050;-66
2022/12/23 11:29:08;;;;;;;1.42;0.55;;;;;;;;;;4970797;28;20038;-65
2022/12/23 11:31:34;;;;;;;0.20;0.20;;;;;;;;;;4959711;28;20058;-66
2022/12/23 11:34:02;;;;;;;0.20;0.20;;;;;;;;;;4952504;28;20035;-67
2022/12/23 11:36:30;;;;;;;1.15;0.50;;;;;;;;;;4967196;28;20050;-66
2022/12/23 11:39:13;;;;;;;0.43;0.40;;;;;;;;;;4950413;28;20060;-66
2022/12/23 11:41:47;;;;;;;0.40;0.30;;;;;;;;;;4983067;28;20049;-65
2022/12/23 11:44:38;;;;;;;1.00;0.40;;;;;;;;;;4952399;28;20135;-66
2022/12/23 11:47:31;;;;;;;0.65;0.28;;;;;;;;;;4950816;28;20507;-66
2022/12/23 11:50:00;;;;;;;1.23;0.40;;;;;;;;;;4952506;28;20194;-65
2022/12/23 11:52:31;;;;;;;0.52;0.40;;;;;;;;;;4952008;28;20047;-65
2022/12/23 11:54:59;;;;;;;4.72;0.80;;;;;;;;;;4951710;28;20058;-66
2022/12/23 11:57:39;;;;;;;0.90;0.30;;;;;;;;;;4951585;28;20053;-65
2022/12/23 12:00:16;;;;;;;1.67;0.40;;;;;;;;;;4951385;28;20142;-66
2022/12/23 12:02:44;;;;;;;0.38;0.38;;;;;;;;;;4966507;28;20065;-66
2022/12/23 12:05:31;;;;;;;0.30;0.30;;;;;;;;;;4951323;28;20050;-66
2022/12/23 12:08:03;;;;;;;1.33;0.38;;;;;;;;;;4951234;28;20051;-66
2022/12/23 12:10:31;;;;;;;1.10;0.60;;;;;;;;;;4951360;28;20051;-66
2022/12/23 12:13:18;;;;;;;0.40;0.40;;;;;;;;;;4950847;28;20039;-66
2022/12/23 12:15:50;;;;;;;0.85;0.50;;;;;;;;;;4951769;28;20047;-66
2022/12/23 12:18:17;;;;;;;;;;;;;;;;;;4951682;28;20101;-66
2022/12/23 12:20:44;;;;;;;1.17;0.50;;;;;;;;;;4951708;28;19918;-66
2022/12/23 12:23:24;;;;;;;0.40;0.40;;;;;;;;;;4950008;28;20067;-66
2022/12/23 12:25:59;;;;;;;0.90;0.30;;;;;;;;;;4969072;28;20626;-66
2022/12/23 12:28:32;;;;;;;0.40;0.40;;;;;;;;;;5004722;28;20053;-66
2022/12/23 12:31:01;;;;;;;1.90;0.50;;;;;;;;;;4982372;28;20115;-66
2022/12/23 12:33:37;;;;;;;1.55;0.30;;;;;;;;;;4964748;28;20090;-66
2022/12/23 12:36:19;;;;;;;3.22;0.38;;;;;;;;;;4951050;28;20082;-65
2022/12/23 12:38:47;;;;;;;1.23;0.50;;;;;;;;;;4950853;28;20047;-65
2022/12/23 12:41:13;;;;;;;0.70;0.30;;;;;;;;;;4981886;28;20047;-67
2022/12/23 12:44:05;;;;;;;1.40;0.45;;;;;;;;;;4950876;28;20043;-66
2022/12/23 12:46:30;;;;;;;;;;;;;;;;;;4940678;28;20054;-66
2022/12/23 12:49:13;;;;;;;1.77;0.70;;;;;;;;;;4950000;28;20002;-66
2022/12/23 12:51:47;;;;;;;0.70;0.60;;;;;;;;;;4951525;28;20054;-67
2022/12/23 12:54:37;;;;;;;0.45;0.45;;;;;;;;;;4951004;28;20058;-66
2022/12/23 12:57:02;;;;;;;0.50;0.40;;;;;;;;;;4949743;28;20179;-66
2022/12/23 12:59:36;;;;;;;0.47;0.47;;;;;;;;;;4951939;28;20137;-66
2022/12/23 13:02:26;;;;;;;0.50;0.50;;;;;;;;;;4955271;28;20539;-66
2022/12/23 13:05:25;;;;;;;0.68;0.52;;;;;;;;;;4954685;28;20070;-68
2022/12/23 13:08:41;;;;;;;0.50;0.50;;;;;;;;;;4950156;28;20049;-66
2022/12/23 13:11:35;;;;;;;0.40;0.40;;;;;;;;;;4963472;28;20454;-66
2022/12/23 13:14:08;;;;;;;0.40;0.40;;;;;;;;;;4955199;28;20130;-66
2022/12/23 13:16:57;;;;;;;1.55;0.68;;;;;;;;;;4954547;28;20070;-66
2022/12/23 13:19:49;;;;;;;0.30;0.30;;;;;;;;;;4977386;28;20057;-65
2022/12/23 13:22:16;;;;;;;0.40;0.40;;;;;;;;;;4993607;28;20069;-66
2022/12/23 13:25:03;;;;;;;0.52;0.50;;;;;;;;;;4993789;28;20050;-66
2022/12/23 13:27:48;;;;;;;1.25;0.32;;;;;;;;;;5015960;28;20118;-66
2022/12/23 13:30:19;;;;;;;0.43;0.40;;;;;;;;;;4973609;28;20133;-66
2022/12/23 13:32:53;;;;;;;3.42;0.40;;;;;;;;;;4958376;28;20130;-65
2022/12/23 13:35:24;;;;;;;0.57;0.30;;;;;;;;;;4954157;28;20114;-66
2022/12/23 13:38:48;;;;;;;0.35;0.35;;;;;;;;;;4954014;28;20121;-66
2022/12/23 13:41:34;;;;;;;2.10;0.60;;;;;;;;;;4988865;28;20081;-65
2022/12/23 13:44:04;;;;;;;0.30;0.30;;;;;;;;;;4991031;28;20430;-66
2022/12/23 13:46:50;;;;;;;1.38;0.25;;;;;;;;;;4963047;28;20082;-66
2022/12/23 13:49:49;;;;;;;0.50;0.50;;;;;;;;;;4984694;28;20851;-66
2022/12/23 13:52:35;;;;;;;0.55;0.50;;;;;;;;;;4954183;28;20059;-66
2022/12/23 13:55:38;;;;;;;2.05;0.60;;;;;;;;;;4953731;28;20103;-66
2022/12/23 13:58:15;;;;;;;0.57;0.40;;;;;;;;;;4953825;28;20156;-66
2022/12/23 14:00:41;;;;;;;1.67;0.50;;;;;;;;;;4953512;28;20055;-66
2022/12/23 14:03:12;;;;;;;0.40;0.40;;;;;;;;;;4953387;28;20377;-66
2022/12/23 14:05:40;;;;;;;1.27;0.63;;;;;;;;;;4953916;28;20055;-66
2022/12/23 14:08:18;;;;;;;0.85;0.57;;;;;;;;;;4953470;28;20039;-66
2022/12/23 14:11:22;;;;;;;1.25;0.55;;;;;;;;;;4984667;28;20129;-66
2022/12/23 14:13:50;;;;;;;0.98;0.70;;;;;;;;;;4953093;28;20047;-66
2022/12/23 14:16:25;;;;;;;2.25;0.73;;;;;;;;;;4954234;28;20121;-65
2022/12/23 14:19:00;;;;;;;0.70;0.50;;;;;;;;;;4953582;28;20047;-66
2022/12/23 14:21:37;;;;;;;1.23;0.85;;;;;;;;;;4966762;28;20047;-64
2022/12/23 14:24:24;;;;;;;1.25;0.70;;;;;;;;;;4946921;28;20050;-65
2022/12/23 14:27:11;;;;;;;2.63;0.80;;;;;;;;;;4952963;28;20043;-66
2022/12/23 14:30:07;;;;;;;0.85;0.82;;;;;;;;;;4953681;28;20047;-66
2022/12/23 14:32:49;;;;;;;0.60;0.60;;;;;;;;;;4968537;28;20058;-65
2022/12/23 14:35:47;;;;;;;1.58;1.00;;;;;;;;;;4952451;28;20067;-66
2022/12/23 14:38:15;;;;;;;1.52;0.90;;;;;;;;;;4952748;28;20188;-66
2022/12/23 14:40:40;;;;;;;0.85;0.70;;;;;;;;;;4953428;28;20500;-66
2022/12/23 14:43:21;;;;;;;3.13;1.27;;;;;;;;;;4952749;28;20059;-66
2022/12/23 14:45:51;;;;;;;3.72;1.50;;;;;;;;;;4952251;28;20043;-65
2022/12/23 14:48:34;;;;;;;3.90;1.80;;;;;;;;;;4952419;28;20050;-64
2022/12/23 14:51:09;;;;;;;4.93;2.13;;;;;;;;;;4944808;28;20047;-65
2022/12/23 14:53:52;;;;;;;2.08;1.58;;;;;;;;;;4965303;28;20054;-65
2022/12/23 14:56:18;;;;;;;2.20;1.60;;;;;;;;;;4952218;28;20094;-65
2022/12/23 14:58:49;;;;;;;3.38;1.77;;;;;;;;;;4952092;28;20043;-66
2022/12/23 15:01:33;;;;;;;2.30;1.80;;;;;;;;;;4952550;28;20097;-65
2022/12/23 15:04:06;;;;;;;3.47;1.52;;;;;;;;;;4953134;28;20398;-66
2022/12/23 15:06:37;;;;;;;5.60;2.30;;;;;;;;;;4952449;28;20101;-65
2022/12/23 15:09:06;;;;;;;5.53;2.50;;;;;;;;;;4955667;28;20057;-66
2022/12/23 15:11:33;;;;;;;2.35;2.13;;;;;;;;;;4991713;28;20057;-65
2022/12/23 15:14:03;;;;;;;2.67;2.40;;;;;;;;;;4991663;28;20069;-66
2022/12/23 15:16:35;;;;;;;6.10;2.95;;;;;;;;;;4980117;28;20508;-65
2022/12/23 15:19:16;;;;;;;4.50;2.65;;;;;;;;;;4968015;28;20133;-65
2022/12/23 15:21:41;;;;;;;2.70;2.38;;;;;;;;;;4952572;28;20140;-66
2022/12/23 15:24:13;;;;;;;4.40;2.40;;;;;;;;;;4952902;28;20136;-66
2022/12/23 15:26:39;;;;;;;4.68;3.22;;;;;;;;;;4952827;28;20050;-66
2022/12/23 15:29:06;;;;;;;5.85;2.97;;;;;;;;;;4950411;28;20047;-66
2022/12/23 15:31:39;;;;;;;4.38;3.40;;;;;;;;;;4952558;28;20138;-65
2022/12/23 15:34:11;;;;;;;4.82;2.85;;;;;;;;;;4952647;28;20155;-65
2022/12/23 15:36:41;;;;;;;6.35;3.03;;;;;;;;;;4952611;28;20051;-65
2022/12/23 15:39:09;;;;;;;2.67;2.17;;;;;;;;;;4950788;28;20083;-66
2022/12/23 15:41:43;;;;;;;2.55;2.33;;;;;;;;;;4951931;28;20043;-65
2022/12/23 15:44:12;;;;;;;4.10;3.13;;;;;;;;;;4952105;28;20660;-65